createdAt,value
2018-05-15T00:00:48.543Z,68.34
2018-05-15T00:01:48.541Z,67.29
2018-05-15T00:02:48.544Z,68.15
2018-05-15T00:03:48.611Z,67.19
2018-05-15T00:04:48.548Z,67.19
2018-05-15T00:05:48.559Z,67.19
2018-05-15T00:06:48.563Z,66.71
2018-05-15T00:07:48.573Z,67.19
2018-05-15T00:08:48.570Z,67.38
2018-05-15T00:09:49.101Z,67.38
2018-05-15T00:10:48.572Z,67.47
2018-05-15T00:11:48.571Z,67.67
2018-05-15T00:12:48.571Z,67.38
2018-05-15T00:13:48.570Z,68.24
2018-05-15T00:14:48.588Z,68.05
2018-05-15T00:15:48.592Z,67.67
2018-05-15T00:16:48.592Z,67.86
2018-05-15T00:17:48.600Z,68.73
2018-05-15T00:18:48.598Z,67.96
2018-05-15T00:19:48.590Z,68.53
2018-05-15T00:20:48.606Z,68.44
2018-05-15T00:21:48.607Z,68.44
2018-05-15T00:22:48.603Z,68.53
2018-05-15T00:23:48.630Z,68.44
2018-05-15T00:24:48.631Z,67.96
2018-05-15T00:25:48.621Z,68.05
2018-05-15T00:26:48.658Z,68.15
2018-05-15T00:27:48.630Z,67.96
2018-05-15T00:28:48.628Z,68.53
2018-05-15T00:29:48.651Z,68.53
2018-05-15T00:30:48.629Z,68.05
2018-05-15T00:31:48.640Z,68.12
2018-05-15T00:32:48.641Z,68.40
2018-05-15T00:33:48.652Z,67.35
2018-05-15T00:34:48.666Z,67.35
2018-05-15T00:35:48.658Z,67.47
2018-05-15T00:36:48.650Z,68.15
2018-05-15T00:37:48.662Z,68.02
2018-05-15T00:38:48.662Z,68.12
2018-05-15T00:39:48.670Z,68.21
2018-05-15T00:40:48.678Z,68.12
2018-05-15T00:41:48.681Z,67.83
2018-05-15T00:42:48.677Z,67.35
2018-05-15T00:43:48.683Z,67.54
2018-05-15T00:44:48.814Z,68.50
2018-05-15T00:45:48.694Z,67.63
2018-05-15T00:46:48.705Z,67.63
2018-05-15T00:47:48.685Z,66.67
2018-05-15T00:48:48.699Z,67.25
2018-05-15T00:49:48.749Z,67.44
2018-05-15T00:50:48.742Z,67.16
2018-05-15T00:51:48.708Z,67.25
2018-05-15T00:52:48.702Z,67.25
2018-05-15T00:53:48.710Z,67.25
2018-05-15T00:54:48.720Z,67.25
2018-05-15T00:55:48.720Z,67.06
2018-05-15T00:56:48.729Z,67.16
2018-05-15T00:57:48.730Z,66.67
2018-05-15T00:58:48.731Z,67.35
2018-05-15T00:59:48.738Z,67.35
2018-05-15T01:00:48.727Z,67.16
2018-05-15T01:01:48.740Z,66.67
2018-05-15T01:02:48.739Z,67.44
2018-05-15T01:03:48.743Z,67.25
2018-05-15T01:04:48.749Z,67.25
2018-05-15T01:05:48.745Z,67.63
2018-05-15T01:06:48.798Z,68.12
2018-05-15T01:07:48.860Z,67.35
2018-05-15T01:08:48.762Z,67.06
2018-05-15T01:09:48.773Z,67.25
2018-05-15T01:10:48.784Z,67.32
2018-05-15T01:11:48.778Z,67.83
2018-05-15T01:12:48.789Z,67.41
2018-05-15T01:13:48.774Z,67.35
2018-05-15T01:14:48.778Z,67.22
2018-05-15T01:15:48.784Z,68.21
2018-05-15T01:16:48.783Z,67.69
2018-05-15T01:17:48.785Z,68.46
2018-05-15T01:18:48.789Z,67.69
2018-05-15T01:19:48.804Z,68.08
2018-05-15T01:20:48.822Z,68.27
2018-05-15T01:21:48.812Z,67.89
2018-05-15T01:22:48.804Z,68.18
2018-05-15T01:23:48.807Z,68.08
2018-05-15T01:24:48.808Z,67.69
2018-05-15T01:25:48.813Z,67.41
2018-05-15T01:26:48.824Z,66.93
2018-05-15T01:27:48.833Z,66.74
2018-05-15T01:28:48.825Z,67.22
2018-05-15T01:29:48.823Z,66.26
2018-05-15T01:30:48.884Z,66.64
2018-05-15T01:31:48.837Z,67.41
2018-05-15T01:32:48.845Z,67.32
2018-05-15T01:33:48.846Z,67.12
2018-05-15T01:34:48.855Z,67.02
2018-05-15T01:35:48.857Z,67.12
2018-05-15T01:36:48.858Z,67.12
2018-05-15T01:37:48.868Z,67.32
2018-05-15T01:38:48.941Z,67.69
2018-05-15T01:39:48.862Z,67.12
2018-05-15T01:40:48.885Z,67.28
2018-05-15T01:41:48.865Z,67.32
2018-05-15T01:42:48.870Z,68.05
2018-05-15T01:43:48.874Z,67.02
2018-05-15T01:44:48.877Z,67.02
2018-05-15T01:45:48.887Z,68.18
2018-05-15T01:46:48.886Z,68.52
2018-05-15T01:47:48.885Z,68.33
2018-05-15T01:48:48.888Z,68.62
2018-05-15T01:49:48.894Z,68.14
2018-05-15T01:50:48.902Z,68.43
2018-05-15T01:51:48.912Z,68.43
2018-05-15T01:52:48.904Z,67.47
2018-05-15T01:53:48.912Z,68.05
2018-05-15T01:54:48.910Z,68.52
2018-05-15T01:55:48.910Z,68.52
2018-05-15T01:56:48.913Z,68.43
2018-05-15T01:57:48.921Z,67.76
2018-05-15T01:58:48.927Z,67.85
2018-05-15T01:59:48.922Z,68.33
2018-05-15T02:00:48.925Z,68.81
2018-05-15T02:01:48.943Z,68.43
2018-05-15T02:02:48.937Z,68.24
2018-05-15T02:03:48.944Z,68.43
2018-05-15T02:04:48.956Z,68.43
2018-05-15T02:05:48.941Z,68.33
2018-05-15T02:06:48.954Z,68.62
2018-05-15T02:07:48.962Z,68.91
2018-05-15T02:08:48.954Z,68.33
2018-05-15T02:09:49.643Z,68.33
2018-05-15T02:10:48.983Z,68.24
2018-05-15T02:11:49.649Z,68.72
2018-05-15T02:12:49.644Z,68.97
2018-05-15T02:13:49.658Z,68.40
2018-05-15T02:14:49.667Z,68.62
2018-05-15T02:15:49.649Z,68.33
2018-05-15T02:16:49.647Z,68.14
2018-05-15T02:17:49.645Z,67.85
2018-05-15T02:18:49.722Z,68.91
2018-05-15T02:19:49.725Z,68.05
2018-05-15T02:20:49.663Z,69.01
2018-05-15T02:21:50.147Z,68.87
2018-05-15T02:22:49.699Z,69.07
2018-05-15T02:23:49.684Z,68.81
2018-05-15T02:24:50.151Z,68.49
2018-05-15T02:25:49.666Z,68.30
2018-05-15T02:26:49.735Z,68.59
2018-05-15T02:27:49.686Z,69.07
2018-05-15T02:28:49.016Z,69.07
2018-05-15T02:29:49.027Z,68.40
2018-05-15T02:30:49.024Z,68.97
2018-05-15T02:31:49.024Z,68.97
2018-05-15T02:32:49.039Z,69.07
2018-05-15T02:33:49.025Z,69.07
2018-05-15T02:34:49.030Z,69.17
2018-05-15T02:35:49.039Z,69.26
2018-05-15T02:36:49.041Z,69.26
2018-05-15T02:37:49.046Z,68.87
2018-05-15T02:38:49.051Z,69.17
2018-05-15T02:39:49.075Z,68.97
2018-05-15T02:40:49.065Z,69.35
2018-05-15T02:41:49.063Z,69.54
2018-05-15T02:42:49.073Z,69.93
2018-05-15T02:43:49.068Z,69.93
2018-05-15T02:44:49.083Z,69.35
2018-05-15T02:45:49.087Z,70.21
2018-05-15T02:46:49.073Z,68.78
2018-05-15T02:47:49.070Z,69.93
2018-05-15T02:48:49.073Z,69.83
2018-05-15T02:49:49.088Z,70.12
2018-05-15T02:50:49.085Z,70.50
2018-05-15T02:51:49.095Z,70.31
2018-05-15T02:52:49.091Z,70.41
2018-05-15T02:53:49.123Z,70.60
2018-05-15T02:54:49.755Z,70.98
2018-05-15T02:55:49.243Z,70.98
2018-05-15T02:56:49.140Z,70.50
2018-05-15T02:57:49.758Z,71.62
2018-05-15T02:58:49.108Z,70.76
2018-05-15T02:59:49.118Z,71.04
2018-05-15T03:00:49.738Z,70.98
2018-05-15T03:01:52.697Z,70.37
2018-05-15T03:02:49.125Z,70.76
2018-05-15T03:03:49.118Z,70.56
2018-05-15T03:04:49.123Z,70.85
2018-05-15T03:05:49.147Z,71.42
2018-05-15T03:06:49.133Z,71.33
2018-05-15T03:07:49.139Z,71.14
2018-05-15T03:08:49.264Z,71.42
2018-05-15T03:09:49.150Z,71.04
2018-05-15T03:10:49.149Z,71.52
2018-05-15T03:11:49.189Z,71.42
2018-05-15T03:12:49.151Z,71.81
2018-05-15T03:13:49.148Z,72.00
2018-05-15T03:14:49.161Z,71.52
2018-05-15T03:15:49.159Z,72.00
2018-05-15T03:16:49.161Z,71.71
2018-05-15T03:17:49.159Z,71.91
2018-05-15T03:18:49.165Z,71.71
2018-05-15T03:19:49.170Z,71.81
2018-05-15T03:20:49.172Z,71.81
2018-05-15T03:21:49.179Z,70.95
2018-05-15T03:22:49.182Z,71.81
2018-05-15T03:23:49.217Z,71.71
2018-05-15T03:24:49.181Z,71.52
2018-05-15T03:25:49.185Z,72.29
2018-05-15T03:26:49.251Z,71.81
2018-05-15T03:27:49.207Z,72.09
2018-05-15T03:28:49.195Z,71.91
2018-05-15T03:29:49.201Z,71.81
2018-05-15T03:30:49.201Z,71.52
2018-05-15T03:31:49.210Z,72.48
2018-05-15T03:32:49.204Z,73.05
2018-05-15T03:33:49.211Z,72.58
2018-05-15T03:34:49.210Z,72.86
2018-05-15T03:35:49.213Z,73.54
2018-05-15T03:36:49.230Z,73.15
2018-05-15T03:37:49.231Z,72.77
2018-05-15T03:38:49.240Z,72.96
2018-05-15T03:39:49.290Z,72.67
2018-05-15T03:40:49.228Z,73.24
2018-05-15T03:41:49.246Z,73.34
2018-05-15T03:42:49.234Z,73.54
2018-05-15T03:43:49.239Z,73.44
2018-05-15T03:44:49.249Z,73.72
2018-05-15T03:45:49.244Z,73.91
2018-05-15T03:46:49.255Z,73.91
2018-05-15T03:47:49.250Z,74.11
2018-05-15T03:48:49.297Z,74.30
2018-05-15T03:49:49.271Z,74.77
2018-05-15T03:50:49.267Z,73.82
2018-05-15T03:51:49.324Z,73.63
2018-05-15T03:52:49.275Z,74.01
2018-05-15T03:53:49.273Z,74.11
2018-05-15T03:54:49.267Z,74.11
2018-05-15T03:55:49.270Z,74.01
2018-05-15T03:56:49.274Z,74.30
2018-05-15T03:57:49.289Z,74.58
2018-05-15T03:58:49.281Z,74.77
2018-05-15T03:59:49.291Z,74.11
2018-05-15T04:00:49.298Z,73.72
2018-05-15T04:01:49.316Z,74.11
2018-05-15T04:02:49.296Z,74.01
2018-05-15T04:03:49.312Z,73.91
2018-05-15T04:04:49.322Z,74.26
2018-05-15T04:05:49.314Z,74.49
2018-05-15T04:06:49.307Z,74.77
2018-05-15T04:07:49.329Z,74.58
2018-05-15T04:08:49.344Z,74.68
2018-05-15T04:09:49.322Z,74.40
2018-05-15T04:10:49.399Z,74.40
2018-05-15T04:11:49.340Z,74.68
2018-05-15T04:12:49.325Z,75.26
2018-05-15T04:13:49.330Z,74.77
2018-05-15T04:14:49.348Z,74.68
2018-05-15T04:15:49.335Z,74.20
2018-05-15T04:16:49.331Z,74.68
2018-05-15T04:17:49.340Z,74.49
2018-05-15T04:18:49.348Z,75.26
2018-05-15T04:19:49.351Z,74.30
2018-05-15T04:20:49.369Z,74.40
2018-05-15T04:21:49.361Z,74.87
2018-05-15T04:22:49.361Z,74.68
2018-05-15T04:23:49.361Z,74.20
2018-05-15T04:24:49.373Z,74.30
2018-05-15T04:25:49.363Z,74.30
2018-05-15T04:26:49.368Z,74.01
2018-05-15T04:27:49.376Z,74.20
2018-05-15T04:28:49.374Z,75.07
2018-05-15T04:29:49.368Z,75.64
2018-05-15T04:30:49.495Z,74.58
2018-05-15T04:31:49.376Z,75.16
2018-05-15T04:32:49.387Z,74.58
2018-05-15T04:33:49.393Z,75.45
2018-05-15T04:34:49.409Z,75.26
2018-05-15T04:35:49.381Z,75.26
2018-05-15T04:36:49.401Z,75.35
2018-05-15T04:37:49.388Z,75.26
2018-05-15T04:38:49.405Z,74.68
2018-05-15T04:39:49.399Z,75.16
2018-05-15T04:40:49.414Z,74.01
2018-05-15T04:41:49.407Z,74.87
2018-05-15T04:42:49.403Z,75.16
2018-05-15T04:43:49.718Z,74.68
2018-05-15T04:44:49.416Z,74.40
2018-05-15T04:45:49.442Z,74.58
2018-05-15T04:46:49.426Z,74.30
2018-05-15T04:47:49.464Z,74.01
2018-05-15T04:48:49.471Z,73.54
2018-05-15T04:49:49.432Z,73.24
2018-05-15T04:50:49.441Z,73.82
2018-05-15T04:51:49.434Z,73.91
2018-05-15T04:52:49.441Z,72.71
2018-05-15T04:53:49.453Z,73.09
2018-05-15T04:54:49.450Z,73.47
2018-05-15T04:55:49.564Z,72.80
2018-05-15T04:56:49.456Z,73.47
2018-05-15T04:57:49.453Z,72.61
2018-05-15T04:58:49.479Z,72.52
2018-05-15T04:59:49.469Z,73.09
2018-05-15T05:00:49.469Z,73.09
2018-05-15T05:01:49.477Z,72.52
2018-05-15T05:02:49.476Z,72.80
2018-05-15T05:03:49.480Z,71.94
2018-05-15T05:04:49.477Z,72.23
2018-05-15T05:05:49.503Z,72.80
2018-05-15T05:06:49.481Z,71.94
2018-05-15T05:07:49.482Z,72.61
2018-05-15T05:08:49.515Z,72.64
2018-05-15T05:09:49.497Z,71.98
2018-05-15T05:10:49.505Z,71.21
2018-05-15T05:11:49.531Z,71.11
2018-05-15T05:12:49.506Z,70.15
2018-05-15T05:13:49.506Z,71.02
2018-05-15T05:14:49.511Z,71.02
2018-05-15T05:15:49.523Z,71.31
2018-05-15T05:16:49.505Z,70.64
2018-05-15T05:17:49.520Z,70.92
2018-05-15T05:18:49.543Z,70.86
2018-05-15T05:19:49.539Z,70.57
2018-05-15T05:20:49.524Z,70.67
2018-05-15T05:21:49.525Z,69.26
2018-05-15T05:22:49.524Z,69.17
2018-05-15T05:23:49.549Z,68.69
2018-05-15T05:24:49.654Z,68.30
2018-05-15T05:25:49.543Z,68.12
2018-05-15T05:26:49.553Z,67.47
2018-05-15T05:27:49.546Z,66.13
2018-05-15T05:28:49.566Z,64.50
2018-05-15T05:29:49.555Z,62.23
2018-05-15T05:30:49.686Z,60.81
2018-05-15T05:31:49.558Z,58.34
2018-05-15T05:32:49.583Z,57.72
2018-05-15T05:33:49.562Z,54.14
2018-05-15T05:34:49.555Z,51.73
2018-05-15T05:35:49.565Z,50.98
2018-05-15T05:36:49.593Z,50.89
2018-05-15T05:37:49.630Z,50.59
2018-05-15T05:38:49.575Z,49.85
2018-05-15T05:39:49.577Z,49.29
2018-05-15T05:40:49.590Z,48.08
2018-05-15T05:41:49.597Z,46.15
2018-05-15T05:42:49.592Z,45.30
2018-05-15T05:43:49.610Z,45.20
2018-05-15T05:44:49.604Z,45.61
2018-05-15T05:45:49.604Z,44.54
2018-05-15T05:46:49.613Z,45.32
2018-05-15T05:47:49.623Z,44.54
2018-05-15T05:48:49.620Z,44.09
2018-05-15T05:49:49.638Z,43.96
2018-05-15T05:50:49.779Z,44.26
2018-05-15T05:51:49.633Z,43.89
2018-05-15T05:52:49.658Z,42.82
2018-05-15T05:53:49.649Z,43.21
2018-05-15T05:54:49.655Z,43.13
2018-05-15T05:55:49.664Z,43.16
2018-05-15T05:56:49.668Z,41.84
2018-05-15T05:57:49.673Z,41.05
2018-05-15T05:58:49.679Z,41.64
2018-05-15T05:59:49.684Z,41.14
2018-05-15T06:00:49.703Z,42.67
2018-05-15T06:01:49.702Z,43.68
2018-05-15T06:02:49.774Z,44.62
2018-05-15T06:03:49.709Z,45.22
2018-05-15T06:04:49.722Z,45.08
2018-05-15T06:05:49.722Z,45.57
2018-05-15T06:06:49.749Z,47.00
2018-05-15T06:07:49.737Z,47.91
2018-05-15T06:08:50.232Z,49.95
2018-05-15T06:09:49.762Z,50.11
2018-05-15T06:10:49.747Z,52.31
2018-05-15T06:11:49.768Z,52.89
2018-05-15T06:12:49.909Z,52.59
2018-05-15T06:13:49.766Z,53.25
2018-05-15T06:14:49.785Z,52.67
2018-05-15T06:15:49.782Z,52.57
2018-05-15T06:16:49.786Z,53.25
2018-05-15T06:17:49.843Z,52.86
2018-05-15T06:18:49.802Z,51.61
2018-05-15T06:19:49.798Z,52.28
2018-05-15T06:20:49.914Z,52.09
2018-05-15T06:21:49.816Z,51.25
2018-05-15T06:22:49.847Z,50.47
2018-05-15T06:23:49.868Z,50.96
2018-05-15T06:24:49.836Z,51.17
2018-05-15T06:25:49.893Z,50.26
2018-05-15T06:26:49.864Z,48.74
2018-05-15T06:27:49.846Z,47.50
2018-05-15T06:28:49.884Z,45.42
2018-05-15T06:29:49.874Z,44.84
2018-05-15T06:30:49.888Z,45.05
2018-05-15T06:31:49.866Z,45.31
2018-05-15T06:32:49.906Z,42.57
2018-05-15T06:33:49.888Z,41.80
2018-05-15T06:34:49.884Z,41.70
2018-05-15T06:35:49.902Z,41.33
2018-05-15T06:36:49.912Z,40.67
2018-05-15T06:37:49.912Z,41.63
2018-05-15T06:38:49.932Z,42.79
2018-05-15T06:39:49.945Z,43.91
2018-05-15T06:40:49.925Z,44.20
2018-05-15T06:41:49.941Z,43.84
2018-05-15T06:42:49.950Z,44.32
2018-05-15T06:43:49.969Z,43.93
2018-05-15T06:44:50.073Z,42.67
2018-05-15T06:45:50.049Z,41.63
2018-05-15T06:46:49.972Z,41.45
2018-05-15T06:47:50.025Z,40.77
2018-05-15T06:48:49.990Z,41.51
2018-05-15T06:49:49.996Z,41.31
2018-05-15T06:50:50.006Z,40.41
2018-05-15T06:51:50.002Z,39.43
2018-05-15T06:52:50.018Z,40.23
2018-05-15T06:53:50.047Z,40.99
2018-05-15T06:54:50.043Z,42.27
2018-05-15T06:55:50.058Z,40.17
2018-05-15T06:56:50.059Z,37.66
2018-05-15T06:57:50.066Z,38.32
2018-05-15T06:58:50.081Z,38.31
2018-05-15T06:59:50.087Z,39.16
2018-05-15T07:00:50.316Z,38.85
2018-05-15T07:01:50.163Z,39.45
2018-05-15T07:02:50.175Z,38.60
2018-05-15T07:03:50.148Z,38.96
2018-05-15T07:04:50.126Z,38.79
2018-05-15T07:05:50.148Z,37.85
2018-05-15T07:06:50.152Z,38.96
2018-05-15T07:07:50.285Z,39.55
2018-05-15T07:08:50.353Z,38.13
2018-05-15T07:09:50.187Z,37.66
2018-05-15T07:10:50.349Z,36.96
2018-05-15T07:11:50.227Z,37.92
2018-05-15T07:12:50.242Z,38.32
2018-05-15T07:13:50.277Z,37.52
2018-05-15T07:14:50.274Z,38.77
2018-05-15T07:15:50.250Z,39.00
2018-05-15T07:16:50.274Z,38.44
2018-05-15T07:17:50.295Z,37.34
2018-05-15T07:18:50.305Z,40.21
2018-05-15T07:19:50.334Z,39.36
2018-05-15T07:20:50.326Z,38.67
2018-05-15T07:21:50.339Z,38.31
2018-05-15T07:22:50.350Z,38.98
2018-05-15T07:23:50.380Z,38.21
2018-05-15T07:24:50.389Z,38.29
2018-05-15T07:25:50.427Z,38.70
2018-05-15T07:26:50.435Z,37.85
2018-05-15T07:27:50.403Z,37.19
2018-05-15T07:28:50.439Z,36.53
2018-05-15T07:29:50.440Z,35.94
2018-05-15T07:30:50.463Z,35.55
2018-05-15T07:31:50.836Z,35.41
2018-05-15T07:32:50.507Z,34.91
2018-05-15T07:33:50.745Z,35.53
2018-05-15T07:34:50.524Z,35.52
2018-05-15T07:35:50.564Z,37.27
2018-05-15T07:36:50.538Z,37.50
2018-05-15T07:37:50.568Z,35.78
2018-05-15T07:38:50.663Z,34.89
2018-05-15T07:39:50.711Z,34.45
2018-05-15T07:40:50.667Z,35.31
2018-05-15T07:41:51.307Z,37.14
2018-05-15T07:42:50.647Z,37.72
2018-05-15T07:43:50.761Z,38.03
2018-05-15T07:44:50.660Z,38.11
2018-05-15T07:45:50.719Z,39.03
2018-05-15T07:46:50.779Z,38.11
2018-05-15T07:47:50.697Z,37.64
2018-05-15T07:48:50.798Z,37.19
2018-05-15T07:49:51.304Z,36.08
2018-05-15T07:50:50.755Z,35.53
2018-05-15T07:51:50.850Z,34.55
2018-05-15T07:52:51.297Z,34.28
2018-05-15T07:53:50.804Z,34.11
2018-05-15T07:54:50.784Z,34.58
2018-05-15T07:55:50.841Z,34.59
2018-05-15T07:56:50.825Z,34.05
2018-05-15T07:57:50.843Z,34.83
2018-05-15T07:58:50.842Z,34.31
2018-05-15T07:59:50.855Z,35.16
2018-05-15T08:00:50.939Z,35.28
2018-05-15T08:01:50.927Z,35.20
2018-05-15T08:02:51.649Z,35.02
2018-05-15T08:03:55.983Z,35.80
2018-05-15T08:05:05.982Z,34.03
2018-05-15T08:05:51.095Z,35.33
2018-05-15T08:06:51.101Z,34.55
2018-05-15T08:07:51.070Z,33.98
2018-05-15T08:08:51.104Z,32.73
2018-05-15T08:09:51.026Z,34.11
2018-05-15T08:10:51.151Z,32.55
2018-05-15T08:11:51.248Z,33.62
2018-05-15T08:12:51.814Z,32.68
2018-05-15T08:13:51.153Z,30.65
2018-05-15T08:14:51.296Z,29.27
2018-05-15T08:15:51.810Z,30.41
2018-05-15T08:16:51.192Z,31.64
2018-05-15T08:17:51.206Z,32.09
2018-05-15T08:18:51.203Z,33.09
2018-05-15T08:19:51.215Z,32.01
2018-05-15T08:20:51.227Z,32.81
2018-05-15T08:21:51.254Z,30.58
2018-05-15T08:22:51.256Z,31.25
2018-05-15T08:23:51.264Z,31.18
2018-05-15T08:24:51.286Z,31.08
2018-05-15T08:25:52.331Z,29.73
2018-05-15T08:26:51.335Z,28.79
2018-05-15T08:27:51.502Z,30.38
2018-05-15T08:28:51.591Z,32.53
2018-05-15T08:29:51.402Z,32.73
2018-05-15T08:30:51.440Z,32.94
2018-05-15T08:31:51.422Z,33.44
2018-05-15T08:32:51.501Z,34.03
2018-05-15T08:33:51.476Z,31.23
2018-05-15T08:34:51.552Z,30.84
2018-05-15T08:35:51.561Z,32.29
2018-05-15T08:36:51.809Z,30.70
2018-05-15T08:37:51.558Z,31.07
2018-05-15T08:38:51.538Z,32.52
2018-05-15T08:39:51.570Z,32.55
2018-05-15T08:40:51.577Z,30.83
2018-05-15T08:41:51.594Z,30.47
2018-05-15T08:42:51.685Z,30.10
2018-05-15T08:43:51.703Z,34.69
2018-05-15T08:44:51.686Z,35.05
2018-05-15T08:45:51.763Z,31.99
2018-05-15T08:46:51.688Z,30.55
2018-05-15T08:47:51.816Z,30.84
2018-05-15T08:48:52.325Z,29.96
2018-05-15T08:49:51.866Z,29.79
2018-05-15T08:50:51.869Z,29.13
2018-05-15T08:51:52.827Z,30.68
2018-05-15T08:52:52.130Z,32.21
2018-05-15T08:53:53.397Z,31.92
2018-05-15T08:54:52.038Z,32.57
2018-05-15T08:55:51.899Z,33.85
2018-05-15T08:56:52.370Z,32.59
2018-05-15T08:57:51.993Z,32.55
2018-05-15T08:58:51.965Z,31.27
2018-05-15T08:59:51.977Z,31.01
2018-05-15T09:00:51.994Z,31.37
2018-05-15T09:01:52.010Z,31.25
2018-05-15T09:02:52.000Z,31.22
2018-05-15T09:03:52.051Z,32.29
2018-05-15T09:04:52.051Z,31.63
2018-05-15T09:05:52.062Z,31.35
2018-05-15T09:06:52.132Z,30.67
2018-05-15T09:07:52.248Z,30.83
2018-05-15T09:08:52.135Z,32.35
2018-05-15T09:09:52.196Z,31.87
2018-05-15T09:10:52.216Z,32.76
2018-05-15T09:11:52.221Z,32.29
2018-05-15T09:12:52.215Z,32.29
2018-05-15T09:13:52.269Z,32.11
2018-05-15T09:14:52.301Z,31.17
2018-05-15T09:15:52.244Z,29.32
2018-05-15T09:16:52.304Z,29.43
2018-05-15T09:17:52.335Z,29.04
2018-05-15T09:18:52.331Z,29.24
2018-05-15T09:19:52.670Z,29.25
2018-05-15T09:20:52.424Z,28.20
2018-05-15T09:21:52.426Z,28.23
2018-05-15T09:22:53.350Z,27.77
2018-05-15T09:23:52.993Z,27.61
2018-05-15T09:24:52.635Z,28.07
2018-05-15T09:25:53.629Z,29.42
2018-05-15T09:26:52.509Z,29.69
2018-05-15T09:27:53.542Z,28.85
2018-05-15T09:28:52.559Z,28.80
2018-05-15T09:29:52.563Z,30.15
2018-05-15T09:30:52.555Z,29.19
2018-05-15T09:31:52.971Z,30.72
2018-05-15T09:32:52.705Z,30.07
2018-05-15T09:33:52.811Z,29.50
2018-05-15T09:34:53.361Z,30.94
2018-05-15T09:35:53.360Z,30.62
2018-05-15T09:36:52.656Z,32.24
2018-05-15T09:37:53.253Z,32.35
2018-05-15T09:38:52.869Z,34.53
2018-05-15T09:39:52.764Z,32.55
2018-05-15T09:40:52.770Z,31.13
2018-05-15T09:41:52.862Z,32.60
2018-05-15T09:42:52.858Z,35.21
2018-05-15T09:43:53.371Z,34.93
2018-05-15T09:44:52.970Z,34.66
2018-05-15T09:45:53.370Z,34.50
2018-05-15T09:46:54.825Z,32.76
2018-05-15T09:47:53.231Z,32.26
2018-05-15T09:48:53.013Z,33.41
2018-05-15T09:49:53.091Z,34.66
2018-05-15T09:50:53.866Z,33.88
2018-05-15T09:51:53.335Z,33.33
2018-05-15T09:52:52.989Z,32.49
2018-05-15T09:53:54.198Z,32.10
2018-05-15T09:54:54.117Z,32.28
2018-05-15T09:55:53.092Z,31.16
2018-05-15T09:56:53.088Z,30.02
2018-05-15T09:57:53.106Z,30.15
2018-05-15T09:58:53.108Z,29.57
2018-05-15T09:59:53.118Z,29.00
2018-05-15T10:00:53.907Z,27.64
2018-05-15T10:01:53.232Z,27.89
2018-05-15T10:02:53.279Z,29.69
2018-05-15T10:03:53.209Z,30.87
2018-05-15T10:04:53.657Z,31.43
2018-05-15T10:05:53.301Z,31.06
2018-05-15T10:06:53.264Z,30.11
2018-05-15T10:07:53.467Z,30.54
2018-05-15T10:08:53.386Z,28.58
2018-05-15T10:09:53.403Z,29.63
2018-05-15T10:10:53.370Z,29.03
2018-05-15T10:11:56.861Z,28.25
2018-05-15T10:12:53.374Z,28.58
2018-05-15T10:13:54.381Z,28.43
2018-05-15T10:14:53.539Z,27.84
2018-05-15T10:15:53.467Z,28.81
2018-05-15T10:16:53.467Z,27.44
2018-05-15T10:17:53.510Z,26.93
2018-05-15T10:18:53.501Z,27.61
2018-05-15T10:19:53.646Z,29.64
2018-05-15T10:20:53.573Z,29.36
2018-05-15T10:21:53.652Z,28.79
2018-05-15T10:22:53.626Z,29.39
2018-05-15T10:23:53.610Z,28.59
2018-05-15T10:24:53.733Z,27.97
2018-05-15T10:25:53.648Z,29.99
2018-05-15T10:26:53.707Z,30.49
2018-05-15T10:27:53.702Z,28.43
2018-05-15T10:28:53.724Z,29.40
2018-05-15T10:29:53.867Z,29.86
2018-05-15T10:30:54.886Z,30.22
2018-05-15T10:31:53.776Z,31.97
2018-05-15T10:32:53.798Z,32.17
2018-05-15T10:33:53.827Z,32.29
2018-05-15T10:34:53.835Z,31.16
2018-05-15T10:35:53.930Z,30.00
2018-05-15T10:36:53.879Z,29.60
2018-05-15T10:37:53.902Z,29.74
2018-05-15T10:38:53.913Z,31.19
2018-05-15T10:39:53.932Z,30.93
2018-05-15T10:40:53.960Z,29.10
2018-05-15T10:41:53.988Z,30.00
2018-05-15T10:42:53.983Z,29.30
2018-05-15T10:43:54.112Z,29.39
2018-05-15T10:44:54.107Z,29.88
2018-05-15T10:45:54.051Z,30.43
2018-05-15T10:46:54.067Z,31.01
2018-05-15T10:47:54.086Z,32.08
2018-05-15T10:48:54.112Z,30.74
2018-05-15T10:49:54.115Z,30.15
2018-05-15T10:50:54.240Z,30.65
2018-05-15T10:51:54.179Z,29.99
2018-05-15T10:52:54.232Z,29.57
2018-05-15T10:53:54.186Z,30.74
2018-05-15T10:54:54.213Z,31.03
2018-05-15T10:55:54.289Z,30.97
2018-05-15T10:56:54.309Z,33.28
2018-05-15T10:57:54.286Z,33.20
2018-05-15T10:58:55.221Z,32.79
2018-05-15T10:59:54.268Z,32.60
2018-05-15T11:00:54.312Z,32.42
2018-05-15T11:01:54.324Z,32.29
2018-05-15T11:02:54.321Z,34.22
2018-05-15T11:03:54.415Z,34.70
2018-05-15T11:04:54.351Z,34.61
2018-05-15T11:05:54.441Z,33.75
2018-05-15T11:06:54.379Z,34.02
2018-05-15T11:07:54.489Z,34.59
2018-05-15T11:08:54.458Z,35.27
2018-05-15T11:09:54.402Z,35.73
2018-05-15T11:10:54.401Z,35.73
2018-05-15T11:11:54.442Z,35.75
2018-05-15T11:12:54.516Z,35.38
2018-05-15T11:13:54.435Z,35.36
2018-05-15T11:14:54.491Z,35.49
2018-05-15T11:15:54.488Z,35.21
2018-05-15T11:16:54.480Z,34.93
2018-05-15T11:17:54.484Z,34.16
2018-05-15T11:18:54.491Z,33.67
2018-05-15T11:19:56.440Z,33.46
2018-05-15T11:20:57.525Z,34.01
2018-05-15T11:21:56.427Z,34.49
2018-05-15T11:22:58.429Z,34.78
2018-05-15T11:23:55.446Z,35.27
2018-05-15T11:24:56.424Z,35.86
2018-05-15T11:25:58.477Z,33.91
2018-05-15T11:26:57.941Z,34.59
2018-05-15T11:29:16.559Z,35.85
2018-05-15T11:29:54.646Z,36.60
2018-05-15T11:30:55.444Z,37.46
2018-05-15T11:31:55.483Z,38.15
2018-05-15T11:32:55.534Z,37.38
2018-05-15T11:33:55.445Z,37.23
2018-05-15T11:34:54.865Z,37.40
2018-05-15T11:35:54.752Z,37.13
2018-05-15T11:36:54.733Z,37.63
2018-05-15T11:37:54.723Z,38.99
2018-05-15T11:38:54.724Z,37.43
2018-05-15T11:39:54.706Z,36.93
2018-05-15T11:40:55.446Z,37.41
2018-05-15T11:41:54.826Z,38.19
2018-05-15T11:42:54.749Z,36.72
2018-05-15T11:43:55.563Z,37.48
2018-05-15T11:44:54.919Z,36.96
2018-05-15T11:45:54.853Z,37.34
2018-05-15T11:46:54.768Z,37.73
2018-05-15T11:47:55.320Z,37.44
2018-05-15T11:48:55.608Z,37.05
2018-05-15T11:49:55.698Z,37.36
2018-05-15T11:50:57.362Z,37.38
2018-05-15T11:51:55.786Z,37.38
2018-05-15T11:52:55.502Z,36.14
2018-05-15T11:53:55.482Z,36.54
2018-05-15T11:54:55.196Z,35.88
2018-05-15T11:55:55.115Z,35.69
2018-05-15T11:56:55.149Z,34.54
2018-05-15T11:57:54.993Z,34.74
2018-05-15T11:58:54.886Z,33.56
2018-05-15T11:59:58.086Z,34.54
2018-05-15T12:01:19.464Z,33.94
2018-05-15T12:01:56.985Z,33.25
2018-05-15T12:02:55.498Z,34.62
2018-05-15T12:03:56.046Z,34.14
2018-05-15T12:04:55.129Z,34.62
2018-05-15T12:05:55.357Z,35.40
2018-05-15T12:06:54.992Z,35.88
2018-05-15T12:07:54.989Z,35.40
2018-05-15T12:08:55.218Z,35.11
2018-05-15T12:09:55.106Z,34.81
2018-05-15T12:10:55.035Z,34.49
2018-05-15T12:11:55.961Z,35.17
2018-05-15T12:12:55.103Z,35.36
2018-05-15T12:13:55.962Z,36.02
2018-05-15T12:14:54.993Z,36.49
2018-05-15T12:15:55.964Z,36.98
2018-05-15T12:16:55.146Z,37.77
2018-05-15T12:17:55.041Z,38.66
2018-05-15T12:18:55.245Z,38.27
2018-05-15T12:19:57.502Z,36.91
2018-05-15T12:20:56.865Z,37.40
2018-05-15T12:21:57.206Z,36.83
2018-05-15T12:22:56.010Z,36.44
2018-05-15T12:23:55.092Z,36.44
2018-05-15T12:24:55.082Z,35.77
2018-05-15T12:25:55.114Z,35.36
2018-05-15T12:26:55.121Z,35.94
2018-05-15T12:27:55.253Z,35.28
2018-05-15T12:28:55.116Z,34.70
2018-05-15T12:29:55.224Z,35.40
2018-05-15T12:30:55.124Z,34.49
2018-05-15T12:31:55.151Z,35.17
2018-05-15T12:32:56.093Z,36.52
2018-05-15T12:33:56.062Z,34.88
2018-05-15T12:34:55.242Z,34.39
2018-05-15T12:35:55.194Z,33.62
2018-05-15T12:36:55.197Z,35.17
2018-05-15T12:38:00.118Z,35.36
2018-05-15T12:38:55.182Z,34.57
2018-05-15T12:39:55.204Z,33.52
2018-05-15T12:40:55.232Z,33.60
2018-05-15T12:41:55.366Z,33.80
2018-05-15T12:42:55.252Z,33.99
2018-05-15T12:43:55.232Z,34.38
2018-05-15T12:44:55.226Z,34.88
2018-05-15T12:45:55.308Z,34.01
2018-05-15T12:46:55.680Z,33.52
2018-05-15T12:47:55.316Z,34.11
2018-05-15T12:48:55.353Z,33.62
2018-05-15T12:49:55.298Z,34.69
2018-05-15T12:50:55.307Z,33.83
2018-05-15T12:51:55.314Z,35.38
2018-05-15T12:52:55.996Z,34.88
2018-05-15T12:53:55.526Z,35.19